Data for 09/28/2008

Time Sea-Level Adjusted Pressure Absolute Pressure Temperature Relative Humidity Dew Point   
(mb) (inHg) (mb) (inHg) (C) (F) (%) (C) (F)
00:05 1023 30.21 852 25.16 11.2 52.2 41 -1.4 29.4
00:10 1023 30.21 852 25.16 11.2 52.2 41 -1.6 29.1
00:15 1023 30.21 852 25.16 11.5 52.7 38 -2.2 28
00:20 1023 30.21 852 25.16 11.6 52.9 39 -2 28.4
00:25 1023 30.21 852 25.16 11.3 52.3 40 -1.9 28.5
00:30 1023 30.21 852 25.16 11.2 52.2 39 -2.2 28.1
00:35 1023 30.21 852 25.16 11.5 52.6 39 -2 28.4
00:40 1023 30.21 852 25.16 11.5 52.6 39 -2.1 28.3
00:45 1023 30.21 852 25.16 11.3 52.3 39 -2 28.4
00:50 1023 30.21 852 25.16 11.1 52 41 -1.7 28.9
00:55 1023 30.21 852 25.16 10.7 51.3 41 -2 28.5
01:00 1023 30.21 852 25.16 10.6 51.1 42 -1.7 28.9
01:05 1023 30.21 852 25.16 10.3 50.5 42 -1.9 28.5
01:10 1023 30.21 852 25.16 10.3 50.5 42 -2.1 28.2
01:15 1023 30.21 852 25.16 10.4 50.7 43 -1.6 29.1
01:20 1023 30.21 852 25.16 10.4 50.6 41 -2.2 28.1
01:25 1023 30.21 852 25.16 10.4 50.8 41 -2.2 28.1
01:30 1023 30.21 852 25.16 10.3 50.5 41 -2.4 27.7
01:35 1023 30.21 852 25.16 10.5 50.8 40 -2.4 27.7
01:40 1023 30.21 852 25.16 10.7 51.3 37 -3.3 26
01:45 1023 30.21 852 25.16 11.2 52.1 35 -3.8 25.1
01:50 1023 30.21 852 25.16 11.4 52.6 36 -3.1 26.4
01:55 1023 30.21 852 25.16 11.3 52.4 35 -3.4 25.9
02:00 1023 30.21 852 25.16 11 51.7 39 -2.3 27.8
02:05 1023 30.21 852 25.16 10.5 51 39 -3 26.7
02:10 1023 30.21 853 25.19 10.7 51.3 38 -2.9 26.7
02:15 1023 30.21 853 25.19 10.9 51.6 37 -3.2 26.2
02:20 1023 30.21 853 25.19 11 51.9 37 -3 26.6
02:25 1024 30.24 853 25.19 11 51.8 37 -3 26.5
02:30 1024 30.24 853 25.19 11.1 51.9 37 -3.1 26.4
02:35 1024 30.24 853 25.19 11 51.8 38 -2.8 27
02:40 1024 30.24 853 25.19 10.7 51.3 38 -3 26.7
02:45 1024 30.24 853 25.19 10.5 50.9 41 -2.2 28.1
02:50 1024 30.24 853 25.19 9.8 49.6 42 -2.3 27.8
02:55 1024 30.24 853 25.19 9.7 49.4 42 -2.6 27.3
03:00 1024 30.24 853 25.19 9.6 49.4 42 -2.7 27.2
03:05 1024 30.24 853 25.19 9.7 49.4 42 -2.7 27.1
03:10 1024 30.24 853 25.19 10 50 39 -3.3 26
03:15 1024 30.24 853 25.19 10.6 51.1 37 -3.4 25.9
03:20 1024 30.24 853 25.19 11 51.7 36 -3.6 25.6
03:25 1024 30.24 853 25.19 11.4 52.4 36 -3.2 26.2
03:30 1024 30.24 853 25.19 11.5 52.6 35 -3.3 26
03:35 1024 30.24 853 25.19 11.5 52.6 36 -3.2 26.3
03:40 1024 30.24 853 25.19 11.2 52.2 37 -2.8 27
03:45 1024 30.24 853 25.19 11.1 52 38 -2.6 27.3
03:50 1024 30.24 853 25.19 10.4 50.8 44 -1.3 29.6
03:55 1024 30.24 853 25.19 9.3 48.8 46 -1.7 28.9
04:00 1024 30.24 853 25.19 9.4 48.8 44 -2.2 28
04:05 1024 30.24 853 25.19 9.6 49.3 44 -1.9 28.5
04:10 1024 30.24 853 25.19 9.4 48.8 45 -1.8 28.7
04:15 1024 30.24 853 25.19 9.4 48.8 45 -1.9 28.5
04:20 1024 30.24 853 25.19 9.2 48.5 46 -1.9 28.7
04:25 1024 30.24 853 25.19 8.8 47.9 50 -1.1 30
04:30 1024 30.24 853 25.19 8.1 46.7 49 -1.8 28.7
04:35 1024 30.24 853 25.19 8.3 47 47 -2.3 27.9
04:40 1024 30.24 853 25.19 8.7 47.7 47 -1.9 28.6
04:45 1024 30.24 854 25.22 8.5 47.4 48 -1.7 28.9
04:50 1024 30.24 854 25.22 8.3 47 48 -1.9 28.6
04:55 1024 30.24 854 25.22 8.4 47.1 46 -2.5 27.5
05:00 1024 30.24 854 25.22 8.8 47.9 45 -2.5 27.6
05:05 1025 30.27 854 25.22 9 48.3 44 -2.5 27.5
05:10 1025 30.27 854 25.22 8.9 48 48 -1.5 29.2
05:15 1025 30.27 854 25.22 8.1 46.6 48 -2.1 28.2
05:20 1025 30.27 854 25.22 7.9 46.2 50 -1.9 28.6
05:25 1025 30.27 854 25.22 7.6 45.6 48 -2.7 27.1
05:30 1025 30.27 854 25.22 8 46.4 47 -2.6 27.4
05:35 1025 30.27 854 25.22 8.1 46.5 46 -2.7 27.1
05:40 1025 30.27 854 25.22 8.2 46.7 46 -2.6 27.3
05:45 1025 30.27 854 25.22 8.4 47.1 45 -2.9 26.8
05:50 1025 30.27 854 25.22 8.9 48 44 -2.7 27.2
05:55 1025 30.27 854 25.22 8.5 47.3 49 -1.6 29.2
06:00 1025 30.27 854 25.22 7.8 46 50 -1.9 28.6
06:05 1025 30.27 854 25.22 7.6 45.6 52 -1.7 28.9
06:10 1025 30.27 854 25.22 7.5 45.4 50 -2.1 28.2
06:15 1025 30.27 854 25.22 7.8 46.1 49 -2.3 27.8
06:20 1025 30.27 854 25.22 8 46.4 49 -2.1 28.2
06:25 1025 30.27 854 25.22 7.8 46 50 -2 28.4
06:30 1025 30.27 854 25.22 7.4 45.4 52 -1.9 28.7
06:35 1025 30.27 854 25.22 7.1 44.8 51 -2.3 27.9
06:40 1025 30.27 854 25.22 7.2 45 51 -2.2 28.1
06:45 1025 30.27 854 25.22 7.4 45.3 47 -3.2 26.3
06:50 1025 30.27 854 25.22 7.9 46.2 49 -2.1 28.2
06:55 1025 30.27 855 25.25 7.2 45 49 -2.8 26.9
07:00 1025 30.27 855 25.25 7.5 45.5 49 -2.4 27.7
07:05 1025 30.27 855 25.25 7.3 45.2 49 -2.7 27.2
07:10 1025 30.27 855 25.25 7.4 45.3 49 -2.6 27.3
07:15 1025 30.27 855 25.25 7.3 45.2 48 -2.9 26.9
07:20 1026 30.3 855 25.25 7.7 45.8 47 -2.9 26.9
07:25 1026 30.3 855 25.25 7.8 46.1 46 -2.9 26.7
07:30 1026 30.3 855 25.25 8 46.5 46 -2.8 27
07:35 1026 30.3 855 25.25 7.7 45.8 49 -2.4 27.7
07:40 1026 30.3 855 25.25 7.3 45.2 50 -2.4 27.6
07:45 1026 30.3 855 25.25 7.2 45 49 -2.7 27.1
07:50 1026 30.3 855 25.25 7.5 45.5 48 -2.7 27.1
07:55 1026 30.3 855 25.25 7.6 45.7 47 -2.8 26.9
08:00 1026 30.3 855 25.25 7.7 45.9 47 -2.8 27
08:05 1026 30.3 855 25.25 7.7 45.9 47 -2.9 26.8
08:10 1026 30.3 855 25.25 7.9 46.2 47 -2.6 27.4
08:15 1026 30.3 855 25.25 7.8 46.1 48 -2.5 27.6
08:20 1026 30.3 855 25.25 7.8 46 48 -2.5 27.5
08:25 1026 30.3 855 25.25 7.6 45.8 50 -2.1 28.2
08:30 1026 30.3 855 25.25 7.4 45.3 51 -2 28.4
08:35 1026 30.3 855 25.25 7.4 45.3 50 -2.4 27.8
08:40 1026 30.3 855 25.25 7.8 46.1 50 -2.1 28.3
08:45 1026 30.3 855 25.25 8.3 47 48 -2.2 28.1
08:50 1026 30.3 855 25.25 9 48.1 45 -2.2 28
08:55 1026 30.3 855 25.25 9.7 49.5 44 -1.9 28.6
09:00 1026 30.3 856 25.28 10.3 50.6 42 -1.9 28.6
09:05 1026 30.3 856 25.28 10.8 51.4 42 -1.5 29.3
09:10 1026 30.3 856 25.28 11.1 51.9 42 -1.3 29.7
09:15 1026 30.3 856 25.28 11.6 52.9 40 -1.6 29.1
09:20 1026 30.3 856 25.28 12.8 55 35 -2.2 28.1
09:25 1027 30.33 856 25.28 13.5 56.2 35 -1.6 29.2
09:30 1027 30.33 856 25.28 13 55.3 36 -1.5 29.3
09:35 1027 30.33 856 25.28 13.3 56 34 -2 28.4
09:40 1027 30.33 856 25.28 13.4 56 34 -2.1 28.3
09:45 1027 30.33 856 25.28 13.5 56.4 34 -1.8 28.8
09:50 1027 30.33 856 25.28 13.7 56.7 34 -2 28.5
09:55 1027 30.33 856 25.28 13.3 55.9 35 -1.8 28.7
10:00 1027 30.33 856 25.28 13.8 56.8 35 -1.5 29.4
10:05 1027 30.33 856 25.28 14.1 57.4 34 -1.4 29.5
10:10 1027 30.33 856 25.28 14.7 58.4 33 -1.3 29.7
10:15 1027 30.33 856 25.28 14.9 58.8 33 -1.2 29.8
10:20 1027 30.33 856 25.28 14.8 58.6 34 -0.8 30.5
10:25 1027 30.33 856 25.28 14.1 57.4 37 -0.3 31.4
10:30 1027 30.33 856 25.28 14.1 57.3 36 -0.8 30.5
10:35 1027 30.33 856 25.28 14.6 58.3 34 -1.1 30.1
10:40 1027 30.33 856 25.28 15 59 33 -1 30.2
10:45 1027 30.33 856 25.28 14.2 57.6 33 -1.6 29.2
10:50 1027 30.33 856 25.28 14.2 57.5 32 -2.4 27.7
10:55 1027 30.33 856 25.28 14.4 57.8 30 -2.8 26.9
11:00 1027 30.33 856 25.28 15.4 59.8 30 -2.1 28.1
11:05 1027 30.33 856 25.28 15.8 60.4 29 -2.2 28.1
11:10 1027 30.33 856 25.28 15.8 60.4 29 -2.3 27.8
11:15 1027 30.33 856 25.28 15.7 60.2 28 -2.6 27.4
11:20 1027 30.33 856 25.28 16 60.8 28 -2.6 27.4
11:25 1027 30.33 856 25.28 16.6 61.8 26 -2.7 27.1
11:30 1027 30.33 856 25.28 17 62.6 27 -2.1 28.2
11:35 1027 30.33 856 25.28 17.2 62.9 27 -1.9 28.6
11:40 1027 30.33 856 25.28 17.2 63 26 -2.4 27.8
11:45 1027 30.33 856 25.28 17.3 63.1 26 -2.4 27.6
11:50 1027 30.33 856 25.28 16.7 62.1 26 -2.8 26.9
11:55 1027 30.33 856 25.28 16.1 61.1 27 -3 26.7
12:00 1027 30.33 856 25.28 16.2 61.2 27 -2.6 27.3
12:05 1027 30.33 856 25.28 17.7 63.8 24 -2.9 26.8
12:10 1027 30.33 856 25.28 18.5 65.2 24 -2.2 28
12:15 1027 30.33 856 25.28 18.9 66 24 -1.9 28.6
12:20 1027 30.33 856 25.28 19 66.2 24 -2 28.4
12:25 1027 30.33 856 25.28 19.1 66.4 24 -1.7 29
12:30 1027 30.33 856 25.28 19.4 67 23 -2.2 28.1
12:35 1027 30.33 856 25.28 19.5 67 21 -3.1 26.4
12:40 1027 30.33 856 25.28 19.5 67 22 -2.7 27.1
12:45 1027 30.33 856 25.28 19.5 67 21 -3.1 26.4
12:50 1027 30.33 856 25.28 19.8 67.7 22 -2.4 27.7
12:55 1027 30.33 856 25.28 19.9 67.9 20 -3.6 25.6
13:00 1027 30.33 856 25.28 19 66.1 22 -3 26.5
13:05 1027 30.33 856 25.28 19.6 67.2 22 -2.9 26.9
13:10 1027 30.33 856 25.28 19 66.2 21 -3.6 25.6
13:15 1027 30.33 856 25.28 19.7 67.5 20 -3.4 25.9
13:20 1027 30.33 856 25.28 19.9 67.9 21 -2.9 26.8
13:25 1027 30.33 856 25.28 20.5 68.8 20 -3 26.5
13:30 1027 30.33 856 25.28 20.7 69.3 20 -3.1 26.4
13:35 1027 30.33 856 25.28 20.9 69.6 18 -3.9 25
13:40 1027 30.33 856 25.28 20.6 69 19 -3.8 25.1
13:45 1026 30.3 856 25.28 20.3 68.5 19 -4.2 24.4
13:50 1026 30.3 856 25.28 20.4 68.6 19 -4.1 24.7
13:55 1026 30.3 856 25.28 20.8 69.5 18 -3.9 24.9
14:00 1026 30.3 856 25.28 21.2 70.2 17 -4.4 24.1
14:05 1026 30.3 855 25.25 21 69.8 17 -4.4 24
14:10 1026 30.3 855 25.25 21.5 70.7 18 -4 24.8
14:15 1026 30.3 855 25.25 21.6 70.8 17 -4.6 23.7
14:20 1026 30.3 855 25.25 21.9 71.5 15 -6 21.1
14:25 1026 30.3 855 25.25 20.6 69.1 18 -4.4 24.1
14:30 1026 30.3 855 25.25 21.2 70.1 19 -3.3 26
14:35 1026 30.3 855 25.25 21.6 70.8 17 -4.2 24.4
14:40 1026 30.3 855 25.25 21.8 71.2 17 -4.2 24.4
14:45 1026 30.3 855 25.25 21.9 71.4 17 -4.4 24
14:50 1026 30.3 855 25.25 22 71.5 17 -3.9 24.9
14:55 1026 30.3 855 25.25 21.9 71.4 15 -5.4 22.3
15:00 1026 30.3 855 25.25 21.8 71.2 16 -5.2 22.7
15:05 1026 30.3 855 25.25 22 71.6 15 -5.6 21.9
15:10 1026 30.3 855 25.25 22.4 72.3 15 -5 23
15:15 1026 30.3 855 25.25 22.6 72.7 15 -5.5 22.1
15:20 1026 30.3 855 25.25 22.3 72.2 16 -4.9 23.2
15:25 1026 30.3 855 25.25 21.6 70.9 15 -6.3 20.7
15:30 1026 30.3 855 25.25 21.5 70.8 15 -6.3 20.6
15:35 1026 30.3 855 25.25 21.7 71.1 14 -6.9 19.6
15:40 1026 30.3 855 25.25 20.6 69.2 15 -7.1 19.2
15:45 1026 30.3 855 25.25 20.7 69.3 14 -7.3 18.9
15:50 1026 30.3 855 25.25 21.6 70.9 13 -7.4 18.6
15:55 1026 30.3 855 25.25 21.7 71.1 14 -6.9 19.5
16:00 1026 30.3 855 25.25 21.2 70.2 14 -7 19.5
16:05 1026 30.3 855 25.25 20.8 69.4 14 -7.6 18.4
16:10 1026 30.3 855 25.25 21.4 70.5 15 -6.6 20.2
16:15 1026 30.3 855 25.25 21.8 71.3 14 -6.3 20.7
16:20 1026 30.3 855 25.25 21.8 71.2 15 -6.2 20.8
16:25 1026 30.3 855 25.25 21.9 71.5 14 -6.2 20.9
16:30 1026 30.3 855 25.25 22.3 72.2 14 -6.5 20.2
16:35 1026 30.3 855 25.25 22.6 72.6 14 -6.1 21.1
16:40 1026 30.3 855 25.25 22.5 72.5 14 -6 21.2
16:45 1026 30.3 855 25.25 22.5 72.5 14 -6.2 20.9
16:50 1026 30.3 855 25.25 22.4 72.3 14 -6.5 20.2
16:55 1026 30.3 855 25.25 22.5 72.4 14 -6 21.3
17:00 1026 30.3 855 25.25 22.6 72.7 13 -6.5 20.2
17:05 1026 30.3 855 25.25 22.5 72.5 14 -6.3 20.7
17:10 1026 30.3 855 25.25 22.6 72.7 14 -5.8 21.6
17:15 1026 30.3 855 25.25 22.4 72.3 14 -6.5 20.2
17:20 1026 30.3 855 25.25 22.4 72.3 15 -5.8 21.6
17:25 1026 30.3 855 25.25 22.2 71.9 14 -6.5 20.3
17:30 1026 30.3 855 25.25 21.8 71.2 15 -5.9 21.4
17:35 1026 30.3 855 25.25 21.5 70.8 14 -6.9 19.6
17:40 1026 30.3 855 25.25 21.6 70.8 14 -7.2 19
17:45 1026 30.3 855 25.25 21.3 70.3 14 -7.2 19
17:50 1026 30.3 855 25.25 21.3 70.3 14 -7.5 18.5
17:55 1026 30.3 855 25.25 21.2 70.2 15 -6 21.2
18:00 1026 30.3 855 25.25 21.5 70.7 14 -6.8 19.8
18:05 1026 30.3 855 25.25 21.9 71.3 15 -6 21.2
18:10 1026 30.3 855 25.25 21.5 70.8 15 -6.4 20.4
18:15 1026 30.3 855 25.25 20.9 69.7 15 -6.3 20.6
18:20 1026 30.3 855 25.25 20.9 69.6 16 -5.4 22.3
18:25 1026 30.3 855 25.25 20.4 68.6 17 -5 23
18:30 1026 30.3 855 25.25 20.4 68.6 18 -4.4 24
18:35 1026 30.3 855 25.25 20.1 68.3 18 -5.1 22.7
18:40 1026 30.3 855 25.25 19.4 66.9 19 -5 22.9
18:45 1026 30.3 855 25.25 19.3 66.8 19 -5.1 22.8
18:50 1026 30.3 855 25.25 19.3 66.8 21 -3.7 25.4
18:55 1026 30.3 855 25.25 18.8 65.8 24 -2.2 28.1
19:00 1026 30.3 855 25.25 18.1 64.5 26 -1.7 28.9
19:05 1026 30.3 855 25.25 17.8 64 27 -1.5 29.2
19:10 1026 30.3 855 25.25 17 62.7 28 -1.5 29.4
19:15 1026 30.3 855 25.25 16.2 61.2 30 -1.2 29.8
19:20 1026 30.3 855 25.25 15.7 60.2 31 -1.4 29.6
19:25 1026 30.3 855 25.25 14.8 58.7 35 -0.2 31.6
19:30 1026 30.3 855 25.25 14.6 58.3 30 -2.5 27.4
19:35 1026 30.3 855 25.25 15 59.1 31 -2 28.4
19:40 1026 30.3 855 25.25 14.7 58.4 32 -1.8 28.8
19:45 1026 30.3 855 25.25 14.4 57.8 33 -1.6 29.2
19:50 1026 30.3 855 25.25 14.2 57.6 34 -1.4 29.4
19:55 1026 30.3 855 25.25 14.2 57.5 34 -1.3 29.7
20:00 1026 30.3 855 25.25 14.1 57.4 36 -0.7 30.7
20:05 1026 30.3 855 25.25 13.9 57.1 37 -0.6 31
20:10 1026 30.3 856 25.28 13.8 56.9 37 -0.6 31
20:15 1026 30.3 856 25.28 13.8 56.8 37 -0.5 31
20:20 1026 30.3 856 25.28 13.7 56.7 38 -0.3 31.4
20:25 1026 30.3 856 25.28 13.7 56.7 38 -0.3 31.5
20:30 1026 30.3 856 25.28 13.7 56.7 38 -0.2 31.7
20:35 1026 30.3 856 25.28 13.6 56.6 39 -0.1 31.8
20:40 1026 30.3 856 25.28 13.6 56.5 39 -0.1 31.8
20:45 1026 30.3 856 25.28 13.6 56.4 39 0 32
20:50 1026 30.3 856 25.28 13.5 56.2 39 0 32.1
20:55 1026 30.3 856 25.28 13.5 56.2 39 -0 31.9
21:00 1027 30.33 856 25.28 13.4 56.2 40 0.1 32.2
21:05 1027 30.33 856 25.28 13.3 56 40 0.2 32.3
21:10 1027 30.33 856 25.28 13.2 55.7 41 0.2 32.4
21:15 1027 30.33 856 25.28 13.1 55.6 41 0.1 32.2
21:20 1027 30.33 856 25.28 13.1 55.6 41 0.2 32.4
21:25 1027 30.33 856 25.28 13 55.4 41 0.1 32.1
21:30 1027 30.33 856 25.28 12.9 55.3 41 0 32
21:35 1027 30.33 856 25.28 12.9 55.2 41 -0.1 31.8
21:40 1027 30.33 856 25.28 12.9 55.3 40 -0.2 31.7
21:45 1027 30.33 856 25.28 12.9 55.2 40 -0.2 31.6
21:50 1027 30.33 856 25.28 12.8 55.1 40 -0.3 31.5
21:55 1027 30.33 856 25.28 12.8 55 40 -0.4 31.3
22:00 1027 30.33 856 25.28 12.8 55.1 40 -0.4 31.2
22:05 1027 30.33 856 25.28 12.8 55 40 -0.4 31.3
22:10 1027 30.33 856 25.28 12.7 54.9 40 -0.4 31.2
22:15 1027 30.33 856 25.28 12.6 54.7 41 -0.2 31.6
22:20 1027 30.33 856 25.28 12.4 54.4 41 -0.3 31.4
22:25 1027 30.33 856 25.28 12.4 54.3 41 -0.4 31.4
22:30 1027 30.33 856 25.28 12.4 54.2 42 -0.3 31.5
22:35 1027 30.33 856 25.28 12.3 54.1 41 -0.4 31.2
22:40 1027 30.33 856 25.28 12.2 54 42 -0.2 31.6
22:45 1027 30.33 856 25.28 12.1 53.7 42 -0.3 31.5
22:50 1027 30.33 856 25.28 12.1 53.8 42 -0.5 31.2
22:55 1027 30.33 856 25.28 12.2 54 41 -0.6 31
23:00 1027 30.33 856 25.28 12.2 54 41 -0.5 31.1
23:05 1027 30.33 856 25.28 12.1 53.7 42 -0.6 31
23:10 1027 30.33 856 25.28 11.8 53.2 42 -0.6 30.9
23:15 1027 30.33 856 25.28 11.7 53.1 42 -0.6 30.9
23:20 1027 30.33 856 25.28 11.8 53.3 42 -0.6 30.9
23:25 1027 30.33 856 25.28 11.8 53.2 42 -0.7 30.8
23:30 1027 30.33 856 25.28 11.7 53.1 42 -0.6 31
23:35 1027 30.33 856 25.28 11.7 53.1 43 -0.5 31
23:40 1027 30.33 856 25.28 11.6 52.9 43 -0.6 30.9
23:45 1027 30.33 856 25.28 11.5 52.6 43 -0.6 31
23:50 1027 30.33 856 25.28 11.5 52.6 43 -0.6 31
23:55 1027 30.33 856 25.28 11.3 52.4 44 -0.4 31.3
24:00 1027 30.33 856 25.28 11.1 51.9 46 0 32.1